Fairfield, Montana
Current Conditions -  °F | °C
As of 12:53 PM on Monday 22 Dec 2014 (Local Time) from KGTF Reporting Station
Overcast Overcast  
Wind Chill: 33°   Ceiling: 7500
Heat Index: 41°   Visibility: 10mi
Dew Point: 19°   Wind: 14mph
Humidity: 41%   Direction: 310°NW
Pressure: 29.89"   Gusts: NA
Location:  47.61°N, 111.98°W
Report Text: KGTF 221953Z 31012KT 10SM OVC075 05/M07 A2989 RMK AO2 SLP153 T00501072
Loading
Personal Weather Stations






























Interactive Weather Map New forecast layout! Learn more

10-Day Weather Forecast

Advertisements
Track Severe Weather on mobile